AIB609 PKMJ-NTAA
Flight info
| Callsign | AIB609 |
|---|---|
| Flight time | N/A |
| Altitude | 35000 |
| Route | VAVEE R332 BO A578 FU A584 FA B577 TUT G224 TAF |
| Aircraft | A339/H-SADE1E2E3GHIJ3J5M1P2RWXY/LB2D1 |
Departure
| Time | N/A |
|---|---|
| Airport | Marshall Islands International Airport (PKMJ) |
Arrival
| Time | 2026-04-27 23:24 |
|---|---|
| Airport | Fa'a'ā International Airport (NTAA) |
| Time | Latitude | Longitude | Altitude | Speed | Heading |
|---|---|---|---|---|---|
| 2026-04-27 22:58 | -17.70566 | -149.56851 | 34935 ft | 502 kts | 98° |
| 2026-04-27 22:59 | -17.70471 | -149.49498 | 34938 ft | 506 kts | 90° |
| 2026-04-27 22:59 | -17.70033 | -149.42113 | 34942 ft | 507 kts | 89° |
| 2026-04-27 23:00 | -17.67545 | -149.31351 | 34697 ft | 518 kts | 64° |
| 2026-04-27 23:00 | -17.65565 | -149.28153 | 34482 ft | 524 kts | 53° |
| 2026-04-27 23:00 | -17.63076 | -149.25362 | 34254 ft | 526 kts | 43° |
| 2026-04-27 23:01 | -17.60148 | -149.23060 | 34035 ft | 527 kts | 32° |
| 2026-04-27 23:01 | -17.56883 | -149.21329 | 33766 ft | 525 kts | 21° |
| 2026-04-27 23:01 | -17.53401 | -149.20236 | 33510 ft | 521 kts | 11° |
| 2026-04-27 23:01 | -17.49817 | -149.19812 | 33258 ft | 518 kts | 0° |
| 2026-04-27 23:02 | -17.46236 | -149.20067 | 33001 ft | 514 kts | 349° |
| 2026-04-27 23:02 | -17.42827 | -149.20976 | 32757 ft | 511 kts | 339° |
| 2026-04-27 23:02 | -17.39616 | -149.22526 | 32512 ft | 508 kts | 328° |
| 2026-04-27 23:02 | -17.36747 | -149.24662 | 32264 ft | 505 kts | 317° |
| 2026-04-27 23:03 | -17.34323 | -149.27305 | 32017 ft | 502 kts | 306° |
| 2026-04-27 23:03 | -17.32420 | -149.30362 | 31680 ft | 501 kts | 296° |
| 2026-04-27 23:03 | -17.31079 | -149.33738 | 31105 ft | 505 kts | 285° |
| 2026-04-27 23:03 | -17.30371 | -149.37348 | 30575 ft | 508 kts | 274° |
| 2026-04-27 23:04 | -17.30324 | -149.41049 | 30043 ft | 510 kts | 264° |
| 2026-04-27 23:04 | -17.30947 | -149.44702 | 29445 ft | 511 kts | 253° |
| 2026-04-27 23:04 | -17.32203 | -149.48134 | 28880 ft | 510 kts | 242° |
| 2026-04-27 23:04 | -17.34085 | -149.51261 | 28662 ft | 503 kts | 231° |
| 2026-04-27 23:05 | -17.36474 | -149.53908 | 28536 ft | 496 kts | 219° |
| 2026-04-27 23:05 | -17.39255 | -149.56012 | 28336 ft | 492 kts | 211° |
| 2026-04-27 23:05 | -17.42077 | -149.58047 | 28097 ft | 492 kts | 216° |
| 2026-04-27 23:05 | -17.44696 | -149.60354 | 27933 ft | 491 kts | 221° |
| 2026-04-27 23:06 | -17.47154 | -149.62840 | 27808 ft | 490 kts | 224° |
| 2026-04-27 23:06 | -17.49520 | -149.65413 | 27687 ft | 489 kts | 226° |
| 2026-04-27 23:06 | -17.51843 | -149.68015 | 27571 ft | 488 kts | 226° |
| 2026-04-27 23:06 | -17.54152 | -149.70618 | 27478 ft | 488 kts | 226° |
| 2026-04-27 23:07 | -17.56439 | -149.73194 | 27390 ft | 487 kts | 226° |
| 2026-04-27 23:07 | -17.58753 | -149.75795 | 27339 ft | 491 kts | 226° |
| 2026-04-27 23:07 | -17.61058 | -149.78382 | 27131 ft | 476 kts | 226° |
| 2026-04-27 23:07 | -17.63283 | -149.80878 | 26211 ft | 464 kts | 226° |
| 2026-04-27 23:08 | -17.65490 | -149.83351 | 24926 ft | 465 kts | 226° |
| 2026-04-27 23:08 | -17.67688 | -149.85815 | 23888 ft | 460 kts | 227° |
| 2026-04-27 23:08 | -17.69857 | -149.88247 | 22825 ft | 452 kts | 227° |
| 2026-04-27 23:08 | -17.71990 | -149.90639 | 21642 ft | 447 kts | 227° |
| 2026-04-27 23:09 | -17.74103 | -149.93010 | 20487 ft | 442 kts | 227° |
| 2026-04-27 23:09 | -17.76191 | -149.95356 | 19396 ft | 437 kts | 227° |
| 2026-04-27 23:09 | -17.78251 | -149.97672 | 18318 ft | 432 kts | 227° |
| 2026-04-27 23:09 | -17.80288 | -149.99962 | 17147 ft | 426 kts | 227° |
| 2026-04-27 23:10 | -17.82293 | -150.02220 | 16049 ft | 418 kts | 227° |
| 2026-04-27 23:10 | -17.84261 | -150.04437 | 14952 ft | 411 kts | 227° |
| 2026-04-27 23:10 | -17.86198 | -150.06619 | 13897 ft | 405 kts | 227° |
| 2026-04-27 23:10 | -17.88105 | -150.08766 | 12764 ft | 399 kts | 227° |
| 2026-04-27 23:11 | -17.90076 | -150.10765 | 11774 ft | 388 kts | 217° |
| 2026-04-27 23:11 | -17.92411 | -150.12073 | 11219 ft | 383 kts | 198° |
| 2026-04-27 23:11 | -17.95110 | -150.12573 | 10989 ft | 400 kts | 181° |
| 2026-04-27 23:11 | -17.97790 | -150.12266 | 10801 ft | 377 kts | 164° |
| 2026-04-27 23:12 | -18.00112 | -150.11196 | 10551 ft | 356 kts | 145° |
| 2026-04-27 23:12 | -18.01846 | -150.09467 | 10361 ft | 335 kts | 125° |
| 2026-04-27 23:12 | -18.02799 | -150.07330 | 10165 ft | 315 kts | 102° |
| 2026-04-27 23:12 | -18.02884 | -150.05139 | 9963 ft | 289 kts | 79° |
| 2026-04-27 23:13 | -18.02162 | -150.03284 | 9789 ft | 265 kts | 53° |
| 2026-04-27 23:13 | -18.00843 | -150.02075 | 9593 ft | 244 kts | 26° |
| 2026-04-27 23:13 | -17.99207 | -150.01572 | 9528 ft | 247 kts | 11° |
| 2026-04-27 23:13 | -17.97553 | -150.01322 | 9366 ft | 232 kts | 8° |
| 2026-04-27 23:14 | -17.95964 | -150.01132 | 8948 ft | 228 kts | 7° |
| 2026-04-27 23:14 | -17.94390 | -150.00950 | 8493 ft | 227 kts | 7° |
| 2026-04-27 23:14 | -17.92829 | -150.00769 | 8061 ft | 225 kts | 8° |
| 2026-04-27 23:14 | -17.91299 | -150.00592 | 7650 ft | 223 kts | 8° |
| 2026-04-27 23:15 | -17.89766 | -150.00412 | 7231 ft | 221 kts | 8° |
| 2026-04-27 23:15 | -17.88244 | -150.00232 | 6841 ft | 219 kts | 8° |
| 2026-04-27 23:15 | -17.86735 | -150.00044 | 6457 ft | 217 kts | 10° |
| 2026-04-27 23:15 | -17.85285 | -149.99679 | 6073 ft | 211 kts | 24° |
| 2026-04-27 23:16 | -17.84068 | -149.98874 | 5858 ft | 202 kts | 45° |
| 2026-04-27 23:16 | -17.83321 | -149.97846 | 6098 ft | 168 kts | 55° |
| 2026-04-27 23:16 | -17.82538 | -149.96808 | 5641 ft | 179 kts | 49° |
| 2026-04-27 23:16 | -17.81783 | -149.95883 | 5712 ft | 165 kts | 50° |
| 2026-04-27 23:17 | -17.80979 | -149.94871 | 5663 ft | 192 kts | 51° |
| 2026-04-27 23:17 | -17.80097 | -149.93747 | 5540 ft | 204 kts | 51° |
| 2026-04-27 23:17 | -17.79184 | -149.92587 | 5445 ft | 210 kts | 51° |
| 2026-04-27 23:17 | -17.78162 | -149.91290 | 5343 ft | 250 kts | 51° |
| 2026-04-27 23:18 | -17.77002 | -149.89820 | 5215 ft | 267 kts | 50° |
| 2026-04-27 23:18 | -17.75810 | -149.88315 | 5098 ft | 268 kts | 50° |
| 2026-04-27 23:18 | -17.74633 | -149.86823 | 4991 ft | 261 kts | 51° |
| 2026-04-27 23:18 | -17.73529 | -149.85359 | 4894 ft | 250 kts | 52° |
| 2026-04-27 23:19 | -17.72490 | -149.83951 | 4808 ft | 239 kts | 52° |
| 2026-04-27 23:19 | -17.71494 | -149.82598 | 4734 ft | 230 kts | 52° |
| 2026-04-27 23:19 | -17.70530 | -149.81294 | 4619 ft | 225 kts | 52° |
| 2026-04-27 23:19 | -17.69583 | -149.80022 | 4398 ft | 218 kts | 52° |
| 2026-04-27 23:20 | -17.68652 | -149.78775 | 4121 ft | 212 kts | 52° |
| 2026-04-27 23:20 | -17.67757 | -149.77581 | 3808 ft | 209 kts | 52° |
| 2026-04-27 23:20 | -17.66835 | -149.76363 | 3407 ft | 211 kts | 52° |
| 2026-04-27 23:20 | -17.65962 | -149.75190 | 3291 ft | 198 kts | 53° |
| 2026-04-27 23:21 | -17.65165 | -149.74080 | 3177 ft | 189 kts | 53° |
| 2026-04-27 23:21 | -17.64333 | -149.73052 | 3069 ft | 181 kts | 47° |
| 2026-04-27 23:21 | -17.63482 | -149.72110 | 2942 ft | 178 kts | 47° |
| 2026-04-27 23:21 | -17.62517 | -149.71055 | 1855 ft | 218 kts | 47° |
| 2026-04-27 23:22 | -17.61576 | -149.69871 | 1749 ft | 205 kts | 55° |
| 2026-04-27 23:22 | -17.60786 | -149.68675 | 1535 ft | 195 kts | 57° |
| 2026-04-27 23:22 | -17.60026 | -149.67516 | 1248 ft | 191 kts | 56° |
| 2026-04-27 23:22 | -17.59268 | -149.66388 | 884 ft | 186 kts | 56° |
| 2026-04-27 23:23 | -17.58530 | -149.65304 | 500 ft | 173 kts | 54° |
| 2026-04-27 23:23 | -17.57861 | -149.64345 | 482 ft | 159 kts | 53° |
| 2026-04-27 23:23 | -17.57231 | -149.63404 | 457 ft | 155 kts | 53° |
| 2026-04-27 23:23 | -17.56655 | -149.62599 | 230 ft | 145 kts | 54° |
| 2026-04-27 23:24 | -17.56134 | -149.61836 | 49 ft | 130 kts | 54° |
| 2026-04-27 23:24 | -17.55684 | -149.61179 | 32 ft | 74 kts | 53° |
| 2026-04-27 23:24 | -17.55549 | -149.60987 | 27 ft | 6 kts | 53° |
| 2026-04-27 23:24 | -17.55521 | -149.60946 | 28 ft | 7 kts | 53° |
| 2026-04-27 23:25 | -17.55484 | -149.60893 | 28 ft | 13 kts | 54° |
| 2026-04-27 23:25 | -17.55418 | -149.60798 | 26 ft | 20 kts | 54° |
| 2026-04-27 23:25 | -17.55331 | -149.60666 | 28 ft | 24 kts | 55° |
| 2026-04-27 23:25 | -17.55227 | -149.60510 | 32 ft | 29 kts | 53° |
| 2026-04-27 23:26 | -17.55100 | -149.60329 | 29 ft | 31 kts | 54° |
| 2026-04-27 23:26 | -17.54980 | -149.60156 | 27 ft | 27 kts | 52° |
| 2026-04-27 23:26 | -17.54895 | -149.60073 | 30 ft | 0 kts | 30° |
| 2026-04-27 23:26 | -17.54877 | -149.60054 | 30 ft | 7 kts | 53° |
| 2026-04-27 23:27 | -17.54879 | -149.60035 | 30 ft | 1 kts | 99° |
| 2026-04-27 23:27 | -17.54896 | -149.60021 | 31 ft | 0 kts | 149° |
| 2026-04-27 23:27 | -17.54933 | -149.60030 | 28 ft | 9 kts | 202° |
| 2026-04-27 23:27 | -17.54958 | -149.60076 | 30 ft | 6 kts | 257° |
| 2026-04-27 23:28 | -17.54970 | -149.60130 | 29 ft | 10 kts | 258° |
| 2026-04-27 23:28 | -17.55037 | -149.60235 | 28 ft | 26 kts | 234° |
| 2026-04-27 23:28 | -17.55147 | -149.60400 | 31 ft | 28 kts | 234° |
| 2026-04-27 23:28 | -17.55220 | -149.60506 | 32 ft | 26 kts | 234° |
| 2026-04-27 23:29 | -17.55355 | -149.60700 | 28 ft | 24 kts | 234° |
| 2026-04-27 23:29 | -17.55449 | -149.60834 | 28 ft | 22 kts | 234° |
| 2026-04-27 23:29 | -17.55534 | -149.60960 | 28 ft | 21 kts | 236° |
| 2026-04-27 23:29 | -17.55617 | -149.61080 | 30 ft | 20 kts | 233° |
| 2026-04-27 23:30 | -17.55686 | -149.61129 | 30 ft | 9 kts | 180° |
| 2026-04-27 23:30 | -17.55728 | -149.61103 | 27 ft | 6 kts | 143° |
| 2026-04-27 23:30 | -17.55757 | -149.61079 | 26 ft | 6 kts | 139° |
| 2026-04-27 23:30 | -17.55768 | -149.61040 | 27 ft | 6 kts | 93° |
| 2026-04-27 23:31 | -17.55776 | -149.60990 | 27 ft | 8 kts | 113° |
| 2026-04-27 23:31 | -17.55811 | -149.60960 | 28 ft | 1 kts | 143° |
| 2026-04-27 23:31 | -17.55817 | -149.60955 | 28 ft | 0 kts | 142° |
| 2026-04-27 23:31 | -17.55817 | -149.60954 | 28 ft | 1 kts | 142° |
| 2026-04-27 23:32 | -17.55818 | -149.60953 | 28 ft | 0 kts | 142° |